sensor_id;sensor_type;location;lat;lon;timestamp;pressure;altitude;pressure_sealevel;temperature;humidity
43621;BME280;29213;50.770;7.298;2022-12-01T00:00:27;101687.44;;;5.86;63.66
43621;BME280;29213;50.770;7.298;2022-12-01T00:02:52;101686.66;;;5.84;63.67
43621;BME280;29213;50.770;7.298;2022-12-01T00:05:18;101736.31;;;6.19;64.00
43621;BME280;29213;50.770;7.298;2022-12-01T00:07:47;101740.72;;;6.19;63.97
43621;BME280;29213;50.770;7.298;2022-12-01T00:10:13;101685.09;;;5.81;63.94
43621;BME280;29213;50.770;7.298;2022-12-01T00:13:01;101729.41;;;6.03;64.11
43621;BME280;29213;50.770;7.298;2022-12-01T00:15:29;101747.09;;;6.16;63.67
43621;BME280;29213;50.770;7.298;2022-12-01T00:17:56;101741.78;;;6.16;63.87
43621;BME280;29213;50.770;7.298;2022-12-01T00:20:22;101749.00;;;6.14;63.78
43621;BME280;29213;50.770;7.298;2022-12-01T00:22:48;101743.81;;;6.12;63.68
43621;BME280;29213;50.770;7.298;2022-12-01T00:25:16;101709.50;;;5.85;63.78
43621;BME280;29213;50.770;7.298;2022-12-01T00:27:41;101748.56;;;5.94;64.31
43621;BME280;29213;50.770;7.298;2022-12-01T00:30:09;101753.66;;;5.97;63.95
43621;BME280;29213;50.770;7.298;2022-12-01T00:32:36;101746.97;;;5.92;63.93
43621;BME280;29213;50.770;7.298;2022-12-01T00:35:02;101693.94;;;5.41;64.11
43621;BME280;29213;50.770;7.298;2022-12-01T00:37:29;101739.66;;;5.82;64.19
43621;BME280;29213;50.770;7.298;2022-12-01T00:39:55;101714.28;;;5.67;64.48
43621;BME280;29213;50.770;7.298;2022-12-01T00:42:21;101590.38;;;4.95;64.20
43621;BME280;29213;50.770;7.298;2022-12-01T00:44:46;101670.44;;;5.36;64.56
43621;BME280;29213;50.770;7.298;2022-12-01T00:47:12;101690.47;;;5.54;64.11
43621;BME280;29213;50.770;7.298;2022-12-01T00:49:38;101642.13;;;5.26;64.28
43621;BME280;29213;50.770;7.298;2022-12-01T00:52:03;101745.16;;;5.79;64.37
43621;BME280;29213;50.770;7.298;2022-12-01T00:54:29;101709.91;;;5.53;64.79
43621;BME280;29213;50.770;7.298;2022-12-01T00:56:58;101716.38;;;5.61;64.66
43621;BME280;29213;50.770;7.298;2022-12-01T00:59:23;101653.84;;;5.34;64.65
43621;BME280;29213;50.770;7.298;2022-12-01T01:01:49;101750.66;;;5.89;64.44
43621;BME280;29213;50.770;7.298;2022-12-01T01:04:15;101675.31;;;5.43;64.06
43621;BME280;29213;50.770;7.298;2022-12-01T01:06:40;101741.03;;;5.75;64.04
43621;BME280;29213;50.770;7.298;2022-12-01T01:09:08;101711.19;;;5.60;64.41
43621;BME280;29213;50.770;7.298;2022-12-01T01:11:34;101685.47;;;5.36;64.62
43621;BME280;29213;50.770;7.298;2022-12-01T01:14:00;101720.06;;;5.59;64.51
43621;BME280;29213;50.770;7.298;2022-12-01T01:16:25;101748.53;;;5.81;64.63
43621;BME280;29213;50.770;7.298;2022-12-01T01:18:51;101753.63;;;5.84;64.70
43621;BME280;29213;50.770;7.298;2022-12-01T01:21:19;101708.31;;;5.50;64.24
43621;BME280;29213;50.770;7.298;2022-12-01T01:23:48;101711.38;;;5.57;64.35
43621;BME280;29213;50.770;7.298;2022-12-01T01:26:25;101746.63;;;5.70;64.40
43621;BME280;29213;50.770;7.298;2022-12-01T01:28:52;101768.63;;;5.84;64.65
43621;BME280;29213;50.770;7.298;2022-12-01T01:31:22;101772.22;;;5.83;64.58
43621;BME280;29213;50.770;7.298;2022-12-01T01:33:47;101722.25;;;5.52;64.47
43621;BME280;29213;50.770;7.298;2022-12-01T01:36:15;101770.22;;;5.86;64.52
43621;BME280;29213;50.770;7.298;2022-12-01T01:38:41;101738.16;;;5.65;64.51
43621;BME280;29213;50.770;7.298;2022-12-01T01:41:07;101694.53;;;5.32;64.64
43621;BME280;29213;50.770;7.298;2022-12-01T01:46:26;101725.22;;;5.47;64.84
43621;BME280;29213;50.770;7.298;2022-12-01T01:49:00;101765.44;;;5.79;65.01
43621;BME280;29213;50.770;7.298;2022-12-01T01:51:32;101723.72;;;5.43;64.90
43621;BME280;29213;50.770;7.298;2022-12-01T01:54:05;101684.16;;;5.16;64.77
43621;BME280;29213;50.770;7.298;2022-12-01T01:56:34;101727.97;;;5.46;64.99
43621;BME280;29213;50.770;7.298;2022-12-01T01:59:00;101647.72;;;4.93;65.09
43621;BME280;29213;50.770;7.298;2022-12-01T02:01:25;101701.97;;;5.40;64.99
43621;BME280;29213;50.770;7.298;2022-12-01T02:03:52;101670.81;;;5.17;65.22
43621;BME280;29213;50.770;7.298;2022-12-01T02:06:18;101768.72;;;5.82;65.09
43621;BME280;29213;50.770;7.298;2022-12-01T02:08:44;101724.72;;;5.55;64.95
43621;BME280;29213;50.770;7.298;2022-12-01T02:17:04;101708.75;;;5.44;65.12
43621;BME280;29213;50.770;7.298;2022-12-01T02:20:17;101769.03;;;5.78;65.33
43621;BME280;29213;50.770;7.298;2022-12-01T02:31:26;101747.22;;;5.61;65.28
43621;BME280;29213;50.770;7.298;2022-12-01T02:34:04;101675.06;;;5.20;65.42
43621;BME280;29213;50.770;7.298;2022-12-01T02:36:42;101746.59;;;5.57;65.55
43621;BME280;29213;50.770;7.298;2022-12-01T02:39:19;101759.63;;;5.73;65.72
43621;BME280;29213;50.770;7.298;2022-12-01T02:41:53;101766.91;;;5.70;65.64
43621;BME280;29213;50.770;7.298;2022-12-01T02:44:28;101700.47;;;5.35;65.74
43621;BME280;29213;50.770;7.298;2022-12-01T02:47:15;101755.28;;;5.72;65.55
43621;BME280;29213;50.770;7.298;2022-12-01T02:49:48;101686.72;;;5.30;65.49
43621;BME280;29213;50.770;7.298;2022-12-01T02:52:14;101758.03;;;5.71;65.64
43621;BME280;29213;50.770;7.298;2022-12-01T02:54:42;101681.63;;;5.27;65.39
43621;BME280;29213;50.770;7.298;2022-12-01T02:57:12;101739.63;;;5.56;65.45
43621;BME280;29213;50.770;7.298;2022-12-01T02:59:40;101760.78;;;5.69;65.53
43621;BME280;29213;50.770;7.298;2022-12-01T03:02:13;101610.81;;;4.79;65.52
43621;BME280;29213;50.770;7.298;2022-12-01T03:05:05;101708.88;;;5.28;65.90
43621;BME280;29213;50.770;7.298;2022-12-01T03:08:00;101726.06;;;5.48;65.81
43621;BME280;29213;50.770;7.298;2022-12-01T03:13:18;101754.44;;;5.59;65.81
43621;BME280;29213;50.770;7.298;2022-12-01T03:18:49;101757.06;;;5.59;65.79
43621;BME280;29213;50.770;7.298;2022-12-01T03:21:24;101735.94;;;5.59;65.90
43621;BME280;29213;50.770;7.298;2022-12-01T03:23:54;101692.09;;;5.29;65.83
43621;BME280;29213;50.770;7.298;2022-12-01T03:26:23;101722.22;;;5.39;65.88
43621;BME280;29213;50.770;7.298;2022-12-01T03:28:53;101754.75;;;5.67;65.77
43621;BME280;29213;50.770;7.298;2022-12-01T03:31:25;101678.34;;;5.23;65.79
43621;BME280;29213;50.770;7.298;2022-12-01T03:34:03;101720.13;;;5.44;65.86
43621;BME280;29213;50.770;7.298;2022-12-01T03:36:38;101754.19;;;5.62;65.80
43621;BME280;29213;50.770;7.298;2022-12-01T03:39:09;101749.78;;;5.62;66.07
43621;BME280;29213;50.770;7.298;2022-12-01T03:41:43;101647.28;;;4.87;66.14
43621;BME280;29213;50.770;7.298;2022-12-01T03:44:16;101678.88;;;5.16;66.33
43621;BME280;29213;50.770;7.298;2022-12-01T03:46:54;101750.19;;;5.56;66.00
43621;BME280;29213;50.770;7.298;2022-12-01T03:49:21;101667.00;;;5.08;66.18
43621;BME280;29213;50.770;7.298;2022-12-01T03:54:32;101752.50;;;5.61;66.12
43621;BME280;29213;50.770;7.298;2022-12-01T03:57:07;101696.81;;;5.23;66.03
43621;BME280;29213;50.770;7.298;2022-12-01T03:59:36;101715.22;;;5.25;66.52
43621;BME280;29213;50.770;7.298;2022-12-01T04:02:05;101710.69;;;5.27;66.39
43621;BME280;29213;50.770;7.298;2022-12-01T04:04:30;101683.47;;;5.12;66.29
43621;BME280;29213;50.770;7.298;2022-12-01T04:06:56;101740.13;;;5.48;66.11
43621;BME280;29213;50.770;7.298;2022-12-01T04:09:21;101710.44;;;5.17;66.37
43621;BME280;29213;50.770;7.298;2022-12-01T04:11:47;101743.19;;;5.42;66.43
43621;BME280;29213;50.770;7.298;2022-12-01T04:14:31;101763.41;;;5.56;66.24
43621;BME280;29213;50.770;7.298;2022-12-01T04:16:56;101761.59;;;5.57;66.23
43621;BME280;29213;50.770;7.298;2022-12-01T04:19:22;101756.97;;;5.60;66.44
43621;BME280;29213;50.770;7.298;2022-12-01T04:21:47;101688.16;;;5.21;66.28
43621;BME280;29213;50.770;7.298;2022-12-01T04:24:14;101715.34;;;5.36;66.03
43621;BME280;29213;50.770;7.298;2022-12-01T04:26:40;101756.44;;;5.68;66.05
43621;BME280;29213;50.770;7.298;2022-12-01T04:29:08;101685.44;;;5.23;65.93
43621;BME280;29213;50.770;7.298;2022-12-01T04:31:34;101611.38;;;4.84;66.13
43621;BME280;29213;50.770;7.298;2022-12-01T04:34:00;101694.94;;;5.26;65.91
43621;BME280;29213;50.770;7.298;2022-12-01T04:36:28;101712.19;;;5.44;65.89
43621;BME280;29213;50.770;7.298;2022-12-01T04:38:54;101731.69;;;5.56;65.93
43621;BME280;29213;50.770;7.298;2022-12-01T04:41:19;101656.88;;;5.15;66.06
43621;BME280;29213;50.770;7.298;2022-12-01T04:43:45;101666.94;;;5.23;66.01
43621;BME280;29213;50.770;7.298;2022-12-01T04:46:10;101711.38;;;5.44;65.86
43621;BME280;29213;50.770;7.298;2022-12-01T04:48:37;101719.72;;;5.51;65.98
43621;BME280;29213;50.770;7.298;2022-12-01T04:51:04;101677.41;;;5.25;66.02
43621;BME280;29213;50.770;7.298;2022-12-01T04:53:30;101733.91;;;5.62;65.74
43621;BME280;29213;50.770;7.298;2022-12-01T04:55:58;101732.00;;;5.65;65.69
43621;BME280;29213;50.770;7.298;2022-12-01T04:58:24;101690.84;;;5.34;65.93
43621;BME280;29213;50.770;7.298;2022-12-01T05:00:49;101748.31;;;5.71;65.89
43621;BME280;29213;50.770;7.298;2022-12-01T05:03:14;101731.38;;;5.61;66.00
43621;BME280;29213;50.770;7.298;2022-12-01T05:05:40;101606.00;;;4.86;66.00
43621;BME280;29213;50.770;7.298;2022-12-01T05:08:05;101757.75;;;5.75;65.76
43621;BME280;29213;50.770;7.298;2022-12-01T05:10:34;101736.34;;;5.66;65.72
43621;BME280;29213;50.770;7.298;2022-12-01T05:12:59;101714.25;;;5.54;65.69
43621;BME280;29213;50.770;7.298;2022-12-01T05:15:25;101712.75;;;5.49;65.82
43621;BME280;29213;50.770;7.298;2022-12-01T05:17:50;101752.44;;;5.75;65.74
43621;BME280;29213;50.770;7.298;2022-12-01T05:20:19;101756.69;;;5.78;65.61
43621;BME280;29213;50.770;7.298;2022-12-01T05:23:04;101734.56;;;5.66;65.55
43621;BME280;29213;50.770;7.298;2022-12-01T05:25:30;101756.88;;;5.75;65.74
43621;BME280;29213;50.770;7.298;2022-12-01T05:27:55;101733.69;;;5.66;65.55
43621;BME280;29213;50.770;7.298;2022-12-01T05:30:21;101702.41;;;5.46;65.42
43621;BME280;29213;50.770;7.298;2022-12-01T05:32:46;101733.56;;;5.54;65.46
43621;BME280;29213;50.770;7.298;2022-12-01T05:35:11;101758.16;;;5.69;65.60
43621;BME280;29213;50.770;7.298;2022-12-01T05:37:37;101678.34;;;5.23;65.34
43621;BME280;29213;50.770;7.298;2022-12-01T05:40:03;101709.56;;;5.44;65.63
43621;BME280;29213;50.770;7.298;2022-12-01T05:42:28;101689.44;;;5.29;65.70
43621;BME280;29213;50.770;7.298;2022-12-01T05:44:54;101755.94;;;5.63;65.61
43621;BME280;29213;50.770;7.298;2022-12-01T05:47:19;101686.44;;;5.07;65.79
43621;BME280;29213;50.770;7.298;2022-12-01T05:49:44;101691.94;;;5.17;65.67
43621;BME280;29213;50.770;7.298;2022-12-01T05:52:10;101742.03;;;5.46;65.87
43621;BME280;29213;50.770;7.298;2022-12-01T05:54:35;101762.53;;;5.56;65.94
43621;BME280;29213;50.770;7.298;2022-12-01T05:57:01;101729.91;;;5.29;66.16
43621;BME280;29213;50.770;7.298;2022-12-01T05:59:26;101767.00;;;5.55;66.08
43621;BME280;29213;50.770;7.298;2022-12-01T06:01:52;101765.19;;;5.56;65.75
43621;BME280;29213;50.770;7.298;2022-12-01T06:04:17;101763.50;;;5.55;65.85
43621;BME280;29213;50.770;7.298;2022-12-01T06:06:43;101764.13;;;5.58;65.74
43621;BME280;29213;50.770;7.298;2022-12-01T06:09:09;101731.19;;;5.36;65.83
43621;BME280;29213;50.770;7.298;2022-12-01T06:11:34;101709.09;;;5.25;65.77
43621;BME280;29213;50.770;7.298;2022-12-01T06:14:00;101712.03;;;5.20;65.46
43621;BME280;29213;50.770;7.298;2022-12-01T06:16:25;101734.91;;;5.34;65.98
43621;BME280;29213;50.770;7.298;2022-12-01T06:18:50;101773.75;;;5.59;65.87
43621;BME280;29213;50.770;7.298;2022-12-01T06:21:16;101751.66;;;5.47;65.75
43621;BME280;29213;50.770;7.298;2022-12-01T06:23:41;101772.84;;;5.60;65.76
43621;BME280;29213;50.770;7.298;2022-12-01T06:26:06;101750.56;;;5.37;65.93
43621;BME280;29213;50.770;7.298;2022-12-01T06:28:32;101714.03;;;5.16;65.77
43621;BME280;29213;50.770;7.298;2022-12-01T06:30:57;101782.00;;;5.55;65.79
43621;BME280;29213;50.770;7.298;2022-12-01T06:33:23;101686.38;;;4.94;65.79
43621;BME280;29213;50.770;7.298;2022-12-01T06:35:56;101702.38;;;5.06;65.71
43621;BME280;29213;50.770;7.298;2022-12-01T06:38:21;101732.75;;;5.26;65.65
43621;BME280;29213;50.770;7.298;2022-12-01T06:40:46;101793.97;;;5.60;65.68
43621;BME280;29213;50.770;7.298;2022-12-01T06:43:12;101719.00;;;5.21;65.55
43621;BME280;29213;50.770;7.298;2022-12-01T06:45:37;101718.91;;;5.22;65.46
43621;BME280;29213;50.770;7.298;2022-12-01T06:48:03;101699.31;;;5.12;65.32
43621;BME280;29213;50.770;7.298;2022-12-01T06:50:28;101802.41;;;5.66;65.33
43621;BME280;29213;50.770;7.298;2022-12-01T06:52:53;101760.28;;;5.90;73.57
43621;BME280;29213;50.770;7.298;2022-12-01T06:55:19;101720.94;;;6.50;73.29
43621;BME280;29213;50.770;7.298;2022-12-01T06:57:44;101776.31;;;7.28;67.69
43621;BME280;29213;50.770;7.298;2022-12-01T07:00:10;101777.66;;;7.09;64.43
43621;BME280;29213;50.770;7.298;2022-12-01T07:02:37;101769.25;;;6.78;63.67
43621;BME280;29213;50.770;7.298;2022-12-01T07:05:03;101807.81;;;6.82;63.43
43621;BME280;29213;50.770;7.298;2022-12-01T07:07:28;101755.31;;;6.37;63.44
43621;BME280;29213;50.770;7.298;2022-12-01T07:09:54;101714.06;;;5.96;63.39
43621;BME280;29213;50.770;7.298;2022-12-01T07:12:19;101811.88;;;6.49;63.85
43621;BME280;29213;50.770;7.298;2022-12-01T07:14:44;101766.56;;;6.15;63.42
43621;BME280;29213;50.770;7.298;2022-12-01T07:17:10;101779.44;;;6.07;63.39
43621;BME280;29213;50.770;7.298;2022-12-01T07:19:35;101807.72;;;6.19;63.68
43621;BME280;29213;50.770;7.298;2022-12-01T07:22:01;101820.94;;;6.19;63.70
43621;BME280;29213;50.770;7.298;2022-12-01T07:24:26;101824.53;;;6.18;63.79
43621;BME280;29213;50.770;7.298;2022-12-01T07:26:53;101791.72;;;5.95;63.72
43621;BME280;29213;50.770;7.298;2022-12-01T07:29:18;101750.84;;;5.60;63.68
43621;BME280;29213;50.770;7.298;2022-12-01T07:31:43;101762.03;;;5.63;63.58
43621;BME280;29213;50.770;7.298;2022-12-01T07:34:12;101753.47;;;5.60;63.76
43621;BME280;29213;50.770;7.298;2022-12-01T07:36:37;101788.69;;;5.73;63.43
43621;BME280;29213;50.770;7.298;2022-12-01T07:39:04;101829.06;;;6.03;64.14
43621;BME280;29213;50.770;7.298;2022-12-01T07:41:30;101828.44;;;5.99;63.85
43621;BME280;29213;50.770;7.298;2022-12-01T07:43:56;101775.34;;;5.62;63.96
43621;BME280;29213;50.770;7.298;2022-12-01T07:46:24;101788.06;;;5.70;63.84
43621;BME280;29213;50.770;7.298;2022-12-01T07:48:50;101827.78;;;5.96;63.61
43621;BME280;29213;50.770;7.298;2022-12-01T07:51:16;101832.13;;;5.97;63.73
43621;BME280;29213;50.770;7.298;2022-12-01T07:53:43;101805.22;;;5.77;63.77
43621;BME280;29213;50.770;7.298;2022-12-01T07:56:09;101834.66;;;5.98;64.46
43621;BME280;29213;50.770;7.298;2022-12-01T07:58:35;101749.19;;;5.44;64.17
43621;BME280;29213;50.770;7.298;2022-12-01T08:01:08;101768.06;;;5.66;65.34
43621;BME280;29213;50.770;7.298;2022-12-01T08:03:34;101803.84;;;5.84;64.42
43621;BME280;29213;50.770;7.298;2022-12-01T08:06:00;101778.53;;;5.67;64.15
43621;BME280;29213;50.770;7.298;2022-12-01T08:08:26;101821.97;;;5.91;63.86
43621;BME280;29213;50.770;7.298;2022-12-01T08:10:52;101838.91;;;6.01;63.71
43621;BME280;29213;50.770;7.298;2022-12-01T08:13:18;101767.09;;;5.54;63.53
43621;BME280;29213;50.770;7.298;2022-12-01T08:15:44;101837.59;;;5.94;63.50
43621;BME280;29213;50.770;7.298;2022-12-01T08:18:10;101776.06;;;5.51;63.56
43621;BME280;29213;50.770;7.298;2022-12-01T08:20:35;101761.34;;;5.47;63.65
43621;BME280;29213;50.770;7.298;2022-12-01T08:23:01;101834.63;;;5.85;63.87
43621;BME280;29213;50.770;7.298;2022-12-01T08:25:28;101830.41;;;5.83;63.64
43621;BME280;29213;50.770;7.298;2022-12-01T08:27:54;101772.78;;;5.47;63.87
43621;BME280;29213;50.770;7.298;2022-12-01T08:30:21;101809.31;;;5.68;63.65
43621;BME280;29213;50.770;7.298;2022-12-01T08:32:47;101774.66;;;5.45;63.48
43621;BME280;29213;50.770;7.298;2022-12-01T08:35:12;101793.44;;;5.55;63.56
43621;BME280;29213;50.770;7.298;2022-12-01T08:37:38;101821.69;;;5.68;63.66
43621;BME280;29213;50.770;7.298;2022-12-01T08:40:04;101807.06;;;5.62;63.46
43621;BME280;29213;50.770;7.298;2022-12-01T08:42:29;101794.47;;;5.53;63.30
43621;BME280;29213;50.770;7.298;2022-12-01T08:44:55;101808.97;;;5.60;63.58
43621;BME280;29213;50.770;7.298;2022-12-01T08:47:20;101830.81;;;5.76;63.31
43621;BME280;29213;50.770;7.298;2022-12-01T08:49:45;101795.22;;;5.55;63.32
43621;BME280;29213;50.770;7.298;2022-12-01T08:52:11;101850.00;;;5.93;63.31
43621;BME280;29213;50.770;7.298;2022-12-01T08:54:36;101746.81;;;5.27;63.33
43621;BME280;29213;50.770;7.298;2022-12-01T08:57:02;101774.88;;;5.42;63.26
43621;BME280;29213;50.770;7.298;2022-12-01T08:59:27;101857.94;;;5.93;63.44
43621;BME280;29213;50.770;7.298;2022-12-01T09:01:52;101802.09;;;5.57;63.14
43621;BME280;29213;50.770;7.298;2022-12-01T09:04:20;101855.38;;;5.92;63.39
43621;BME280;29213;50.770;7.298;2022-12-01T09:06:47;101852.72;;;5.92;63.24
43621;BME280;29213;50.770;7.298;2022-12-01T09:09:15;101829.53;;;5.69;63.29
43621;BME280;29213;50.770;7.298;2022-12-01T09:11:42;101857.28;;;5.89;63.20
43621;BME280;29213;50.770;7.298;2022-12-01T09:14:08;101861.53;;;5.92;63.35
43621;BME280;29213;50.770;7.298;2022-12-01T09:16:34;101846.16;;;5.84;63.54
43621;BME280;29213;50.770;7.298;2022-12-01T09:19:00;101868.41;;;5.95;63.25
43621;BME280;29213;50.770;7.298;2022-12-01T09:21:28;101864.03;;;5.94;63.49
43621;BME280;29213;50.770;7.298;2022-12-01T09:23:55;101853.38;;;5.95;69.41
43621;BME280;29213;50.770;7.298;2022-12-01T09:26:20;101803.03;;;6.36;72.53
43621;BME280;29213;50.770;7.298;2022-12-01T09:28:57;101867.78;;;7.34;66.47
43621;BME280;29213;50.770;7.298;2022-12-01T09:31:23;101856.06;;;7.12;63.13
43621;BME280;29213;50.770;7.298;2022-12-01T09:33:57;101861.91;;;7.04;62.43
43621;BME280;29213;50.770;7.298;2022-12-01T09:36:23;101870.59;;;6.93;62.14
43621;BME280;29213;50.770;7.298;2022-12-01T09:38:48;101857.19;;;6.71;61.88
43621;BME280;29213;50.770;7.298;2022-12-01T09:41:18;101801.78;;;6.28;62.22
43621;BME280;29213;50.770;7.298;2022-12-01T09:43:48;101818.00;;;6.37;62.29
43621;BME280;29213;50.770;7.298;2022-12-01T09:46:20;101868.00;;;6.67;61.89
43621;BME280;29213;50.770;7.298;2022-12-01T09:48:47;101739.53;;;5.84;61.94
43621;BME280;29213;50.770;7.298;2022-12-01T09:51:15;101872.00;;;6.60;62.27
43621;BME280;29213;50.770;7.298;2022-12-01T09:53:41;101864.38;;;6.55;61.60
43621;BME280;29213;50.770;7.298;2022-12-01T09:56:23;101801.38;;;6.09;61.74
43621;BME280;29213;50.770;7.298;2022-12-01T09:58:52;101748.63;;;5.80;61.48
43621;BME280;29213;50.770;7.298;2022-12-01T10:01:31;101856.34;;;6.44;61.60
43621;BME280;29213;50.770;7.298;2022-12-01T10:04:01;101848.44;;;6.29;61.40
43621;BME280;29213;50.770;7.298;2022-12-01T10:06:38;101868.16;;;6.38;61.62
43621;BME280;29213;50.770;7.298;2022-12-01T10:09:31;101863.72;;;6.39;61.57
43621;BME280;29213;50.770;7.298;2022-12-01T10:12:12;101836.59;;;6.22;61.55
43621;BME280;29213;50.770;7.298;2022-12-01T10:14:38;101812.88;;;6.08;61.21
43621;BME280;29213;50.770;7.298;2022-12-01T10:19:49;101781.78;;;5.98;66.13
43621;BME280;29213;50.770;7.298;2022-12-01T10:30:24;101783.38;;;6.14;61.06
43621;BME280;29213;50.770;7.298;2022-12-01T10:33:18;101847.78;;;6.53;61.33
43621;BME280;29213;50.770;7.298;2022-12-01T10:35:40;101839.84;;;6.53;60.96
43621;BME280;29213;50.770;7.298;2022-12-01T10:38:13;101803.78;;;6.25;61.44
43621;BME280;29213;50.770;7.298;2022-12-01T10:40:41;101778.50;;;6.08;61.21
43621;BME280;29213;50.770;7.298;2022-12-01T10:43:08;101802.09;;;6.24;60.56
43621;BME280;29213;50.770;7.298;2022-12-01T10:45:36;101836.28;;;6.40;60.99
43621;BME280;29213;50.770;7.298;2022-12-01T10:48:21;101810.06;;;6.24;60.98
43621;BME280;29213;50.770;7.298;2022-12-01T10:56:05;101829.22;;;6.40;61.17
43621;BME280;29213;50.770;7.298;2022-12-01T10:58:58;101796.06;;;6.22;61.30
43621;BME280;29213;50.770;7.298;2022-12-01T11:01:28;101826.06;;;6.48;61.00
43621;BME280;29213;50.770;7.298;2022-12-01T11:04:06;101804.75;;;6.37;60.60
43621;BME280;29213;50.770;7.298;2022-12-01T11:06:33;101821.50;;;6.50;60.32
43621;BME280;29213;50.770;7.298;2022-12-01T11:09:02;101821.59;;;6.49;60.28
43621;BME280;29213;50.770;7.298;2022-12-01T11:11:33;101786.88;;;6.27;60.58
43621;BME280;29213;50.770;7.298;2022-12-01T11:14:21;101820.97;;;6.45;60.55
43621;BME280;29213;50.770;7.298;2022-12-01T11:16:48;101820.16;;;6.45;60.83
43621;BME280;29213;50.770;7.298;2022-12-01T11:19:31;101760.09;;;6.06;60.72
43621;BME280;29213;50.770;7.298;2022-12-01T11:22:02;101784.56;;;6.23;60.72
43621;BME280;29213;50.770;7.298;2022-12-01T11:24:41;101812.31;;;6.43;60.47
43621;BME280;29213;50.770;7.298;2022-12-01T11:27:28;101604.16;;;5.14;60.88
43621;BME280;29213;50.770;7.298;2022-12-01T11:29:56;101793.41;;;6.35;60.67
43621;BME280;29213;50.770;7.298;2022-12-01T11:32:28;101814.00;;;6.44;60.24
43621;BME280;29213;50.770;7.298;2022-12-01T11:35:01;101746.56;;;6.11;60.73
43621;BME280;29213;50.770;7.298;2022-12-01T11:37:31;101796.72;;;6.51;60.33
43621;BME280;29213;50.770;7.298;2022-12-01T11:40:15;101795.38;;;6.46;60.62
43621;BME280;29213;50.770;7.298;2022-12-01T11:42:46;101736.06;;;6.22;60.20
43621;BME280;29213;50.770;7.298;2022-12-01T11:48:22;101806.88;;;6.71;59.66
43621;BME280;29213;50.770;7.298;2022-12-01T11:53:44;101764.34;;;6.48;57.96
43621;BME280;29213;50.770;7.298;2022-12-01T11:56:21;101763.06;;;6.53;57.74
43621;BME280;29213;50.770;7.298;2022-12-01T11:58:49;101791.94;;;6.69;56.07
43621;BME280;29213;50.770;7.298;2022-12-01T12:04:22;101783.91;;;6.71;56.03
43621;BME280;29213;50.770;7.298;2022-12-01T12:26:24;101785.88;;;6.80;54.90
43621;BME280;29213;50.770;7.298;2022-12-01T12:29:11;101772.44;;;6.83;55.71
43621;BME280;29213;50.770;7.298;2022-12-01T12:34:44;101741.34;;;6.61;54.90
43621;BME280;29213;50.770;7.298;2022-12-01T12:39:55;101730.00;;;6.59;54.81
43621;BME280;29213;50.770;7.298;2022-12-01T12:42:37;101738.06;;;6.58;54.80
43621;BME280;29213;50.770;7.298;2022-12-01T12:50:55;101770.91;;;6.92;54.55
43621;BME280;29213;50.770;7.298;2022-12-01T12:53:28;101719.28;;;6.74;54.74
43621;BME280;29213;50.770;7.298;2022-12-01T12:55:58;101768.75;;;7.11;54.15
43621;BME280;29213;50.770;7.298;2022-12-01T12:58:52;101765.34;;;7.08;54.11
43621;BME280;29213;50.770;7.298;2022-12-01T13:01:28;101729.53;;;7.16;59.00
43621;BME280;29213;50.770;7.298;2022-12-01T13:03:59;101703.75;;;7.18;55.41
43621;BME280;29213;50.770;7.298;2022-12-01T13:09:13;101757.81;;;7.40;54.36
43621;BME280;29213;50.770;7.298;2022-12-01T13:14:23;101750.22;;;7.35;54.27
43621;BME280;29213;50.770;7.298;2022-12-01T13:16:52;101753.94;;;7.32;53.64
43621;BME280;29213;50.770;7.298;2022-12-01T13:19:34;101745.56;;;7.26;53.49
43621;BME280;29213;50.770;7.298;2022-12-01T13:22:02;101703.75;;;6.93;53.91
43621;BME280;29213;50.770;7.298;2022-12-01T13:24:29;101703.13;;;6.90;53.62
43621;BME280;29213;50.770;7.298;2022-12-01T13:26:59;101741.69;;;7.18;53.55
43621;BME280;29213;50.770;7.298;2022-12-01T13:29:33;101616.03;;;6.36;53.40
43621;BME280;29213;50.770;7.298;2022-12-01T13:32:00;101749.97;;;7.14;53.35
43621;BME280;29213;50.770;7.298;2022-12-01T13:34:34;101737.78;;;7.11;53.42
43621;BME280;29213;50.770;7.298;2022-12-01T13:37:01;101738.59;;;7.00;52.90
43621;BME280;29213;50.770;7.298;2022-12-01T13:39:31;101742.41;;;6.96;53.03
43621;BME280;29213;50.770;7.298;2022-12-01T13:44:40;101671.78;;;6.59;53.03
43621;BME280;29213;50.770;7.298;2022-12-01T13:49:43;101692.06;;;6.72;53.17
43621;BME280;29213;50.770;7.298;2022-12-01T14:00:33;101661.53;;;6.41;52.88
43621;BME280;29213;50.770;7.298;2022-12-01T14:08:23;101729.09;;;6.85;53.32
43621;BME280;29213;50.770;7.298;2022-12-01T14:10:56;101714.63;;;6.77;53.00
43621;BME280;29213;50.770;7.298;2022-12-01T14:13:23;101725.50;;;6.86;53.33
43621;BME280;29213;50.770;7.298;2022-12-01T14:15:57;101731.03;;;6.82;53.27
43621;BME280;29213;50.770;7.298;2022-12-01T14:18:42;101709.59;;;6.61;52.96
43621;BME280;29213;50.770;7.298;2022-12-01T14:21:12;101733.50;;;6.73;53.20
43621;BME280;29213;50.770;7.298;2022-12-01T14:23:58;101698.78;;;6.51;53.88
43621;BME280;29213;50.770;7.298;2022-12-01T14:26:25;101734.56;;;6.70;53.24
43621;BME280;29213;50.770;7.298;2022-12-01T14:34:01;101673.09;;;6.27;53.20
43621;BME280;29213;50.770;7.298;2022-12-01T14:36:38;101716.94;;;6.45;53.23
43621;BME280;29213;50.770;7.298;2022-12-01T14:44:10;101745.78;;;6.61;53.57
43621;BME280;29213;50.770;7.298;2022-12-01T14:46:51;101738.19;;;6.56;53.60
43621;BME280;29213;50.770;7.298;2022-12-01T14:50:00;101731.19;;;6.55;54.06
43621;BME280;29213;50.770;7.298;2022-12-01T14:52:33;101706.09;;;6.35;53.78
43621;BME280;29213;50.770;7.298;2022-12-01T14:55:02;101708.03;;;6.33;53.77
43621;BME280;29213;50.770;7.298;2022-12-01T14:57:41;101665.00;;;6.05;53.68
43621;BME280;29213;50.770;7.298;2022-12-01T15:00:22;101738.22;;;6.43;53.38
43621;BME280;29213;50.770;7.298;2022-12-01T15:02:58;101692.69;;;6.12;53.53
43621;BME280;29213;50.770;7.298;2022-12-01T15:05:26;101737.41;;;6.41;52.99
43621;BME280;29213;50.770;7.298;2022-12-01T15:07:57;101735.00;;;6.38;53.18